Time;durP1;ratioP1;P1;durP2;ratioP2;P2;SDS_P1;SDS_P2;PMS_P1;PMS_P2;Temp;Humidity;BMP_temperature;BMP_pressure;BME280_temperature;BME280_humidity;BME280_pressure;Samples;Min_cycle;Max_cycle;Signal;HPM_P1;HPM_P2
2022/08/13 00:00:36;;;;;;;9.07;5.18;;;;;;;;;;4996113;28;20054;-79
2022/08/13 00:03:16;;;;;;;9.98;5.10;;;;;;;;;;4999991;28;20058;-79
2022/08/13 00:06:08;;;;;;;7.90;4.78;;;;;;;;;;4993281;28;20058;-79
2022/08/13 00:08:51;;;;;;;9.68;4.88;;;;;;;;;;5005228;28;20090;-79
2022/08/13 00:14:26;;;;;;;9.60;4.95;;;;;;;;;;4996120;28;20055;-79
2022/08/13 00:17:04;;;;;;;18.83;4.82;;;;;;;;;;4998527;28;20058;-80
2022/08/13 00:19:34;;;;;;;8.73;4.78;;;;;;;;;;4997754;28;20047;-79
2022/08/13 00:22:02;;;;;;;11.40;5.03;;;;;;;;;;5004948;28;20081;-79
2022/08/13 00:24:49;;;;;;;10.52;4.72;;;;;;;;;;4998040;28;20054;-79
2022/08/13 00:27:23;;;;;;;12.75;5.38;;;;;;;;;;5007294;28;20860;-79
2022/08/13 00:29:54;;;;;;;10.05;5.32;;;;;;;;;;5004577;28;20820;-80
2022/08/13 00:32:32;;;;;;;11.88;5.03;;;;;;;;;;5001942;28;20199;-79
2022/08/13 00:35:03;;;;;;;6.78;4.55;;;;;;;;;;5008480;28;20172;-79
2022/08/13 00:37:41;;;;;;;12.60;5.43;;;;;;;;;;5002303;28;21026;-79
2022/08/13 00:40:19;;;;;;;7.95;4.90;;;;;;;;;;4998176;28;20074;-79
2022/08/13 00:43:03;;;;;;;8.95;4.82;;;;;;;;;;5002143;28;20050;-80
2022/08/13 00:45:32;;;;;;;9.70;5.32;;;;;;;;;;5006230;28;20038;-79
2022/08/13 00:50:52;;;;;;;8.40;5.18;;;;;;;;;;4999067;28;20795;-79
2022/08/13 00:53:23;;;;;;;11.77;5.25;;;;;;;;;;5002080;28;20043;-79
2022/08/13 00:55:59;;;;;;;7.68;5.07;;;;;;;;;;5005769;28;20051;-80
2022/08/13 00:58:28;;;;;;;9.45;5.05;;;;;;;;;;5007071;28;21046;-79
2022/08/13 01:00:58;;;;;;;9.95;5.28;;;;;;;;;;5006975;28;20061;-79
2022/08/13 01:03:29;;;;;;;8.88;5.10;;;;;;;;;;5006392;28;20509;-79
2022/08/13 01:06:18;;;;;;;8.18;5.32;;;;;;;;;;5001406;28;20055;-79
2022/08/13 01:08:46;;;;;;;13.45;6.13;;;;;;;;;;5003773;28;20045;-80
2022/08/13 01:11:27;;;;;;;8.82;5.30;;;;;;;;;;5009377;28;20058;-79
2022/08/13 01:13:58;;;;;;;8.93;5.38;;;;;;;;;;5005356;28;20065;-79
2022/08/13 01:16:36;;;;;;;11.02;5.47;;;;;;;;;;5004131;28;20055;-80
2022/08/13 01:19:08;;;;;;;8.32;5.90;;;;;;;;;;5004596;28;20141;-79
2022/08/13 01:21:47;;;;;;;7.13;5.35;;;;;;;;;;5003717;28;20125;-79
2022/08/13 01:24:14;;;;;;;10.68;5.25;;;;;;;;;;5003063;28;21289;-79
2022/08/13 01:26:41;;;;;;;9.13;5.50;;;;;;;;;;5000208;28;20051;-79
2022/08/13 01:29:16;;;;;;;7.10;5.25;;;;;;;;;;5000927;28;20053;-79
2022/08/13 01:31:44;;;;;;;9.25;5.35;;;;;;;;;;5004406;28;20432;-79
2022/08/13 01:34:15;;;;;;;7.13;5.30;;;;;;;;;;5009585;28;20083;-79
2022/08/13 01:36:52;;;;;;;12.30;5.75;;;;;;;;;;5007637;28;20054;-79
2022/08/13 01:39:23;;;;;;;9.57;5.70;;;;;;;;;;5003313;28;20042;-79
2022/08/13 01:42:05;;;;;;;9.43;5.25;;;;;;;;;;5002338;28;20062;-79
2022/08/13 01:44:36;;;;;;;7.88;5.65;;;;;;;;;;5002156;28;20055;-79
2022/08/13 01:50:31;;;;;;;7.63;5.40;;;;;;;;;;5009689;28;20050;-79
2022/08/13 01:53:03;;;;;;;7.82;5.40;;;;;;;;;;4994644;28;20051;-78
2022/08/13 01:55:39;;;;;;;6.72;4.78;;;;;;;;;;4998839;28;20149;-80
2022/08/13 01:58:30;;;;;;;8.70;5.32;;;;;;;;;;4997302;28;20054;-79
2022/08/13 02:01:02;;;;;;;7.45;4.97;;;;;;;;;;5002648;28;20039;-79
2022/08/13 02:03:36;;;;;;;7.88;5.15;;;;;;;;;;5014643;28;20061;-79
2022/08/13 02:06:03;;;;;;;9.30;4.80;;;;;;;;;;5015650;28;20055;-79
2022/08/13 02:08:51;;;;;;;10.85;5.10;;;;;;;;;;5016629;28;20046;-79
2022/08/13 02:11:19;;;;;;;12.30;5.47;;;;;;;;;;5013905;28;20047;-78
2022/08/13 02:13:55;;;;;;;6.70;5.28;;;;;;;;;;5015105;28;20054;-79
2022/08/13 02:16:29;;;;;;;18.70;5.15;;;;;;;;;;5013816;28;20057;-79
2022/08/13 02:19:00;;;;;;;7.05;4.90;;;;;;;;;;5014740;28;20047;-78
2022/08/13 02:21:31;;;;;;;9.07;4.97;;;;;;;;;;5000683;28;20080;-79
2022/08/13 02:24:09;;;;;;;8.75;5.05;;;;;;;;;;5008829;28;20061;-79
2022/08/13 02:26:38;;;;;;;9.82;4.53;;;;;;;;;;5007559;28;20047;-79
2022/08/13 02:29:09;;;;;;;11.77;5.30;;;;;;;;;;5008196;28;20054;-80
2022/08/13 02:31:37;;;;;;;9.98;5.20;;;;;;;;;;5009406;28;20046;-79
2022/08/13 02:34:27;;;;;;;8.27;5.38;;;;;;;;;;5008631;28;20874;-79
2022/08/13 02:36:58;;;;;;;9.97;5.03;;;;;;;;;;5009217;28;20058;-79
2022/08/13 02:39:48;;;;;;;8.23;4.60;;;;;;;;;;5016779;28;20053;-79
2022/08/13 02:42:17;;;;;;;7.35;4.78;;;;;;;;;;5007417;28;20049;-78
2022/08/13 02:44:47;;;;;;;8.43;5.30;;;;;;;;;;5003783;28;20059;-79
2022/08/13 02:47:18;;;;;;;9.32;4.85;;;;;;;;;;5006786;28;20039;-79
2022/08/13 02:49:50;;;;;;;6.63;4.90;;;;;;;;;;5006392;28;20505;-79
2022/08/13 02:52:22;;;;;;;8.88;4.65;;;;;;;;;;5010386;28;20062;-79
2022/08/13 02:55:01;;;;;;;6.30;4.80;;;;;;;;;;5008405;28;20058;-79
2022/08/13 02:57:30;;;;;;;;;;;;;;;;;;5013073;28;20050;-79
2022/08/13 02:59:59;;;;;;;7.05;4.45;;;;;;;;;;5006716;28;45314;-79
2022/08/13 03:02:37;;;;;;;7.07;4.95;;;;;;;;;;5010296;28;20051;-79
2022/08/13 03:05:06;;;;;;;7.68;4.95;;;;;;;;;;5008896;28;20050;-79
2022/08/13 03:07:40;;;;;;;9.30;5.45;;;;;;;;;;5005874;28;20055;-79
2022/08/13 03:10:20;;;;;;;8.65;4.93;;;;;;;;;;5001962;28;20054;-79
2022/08/13 03:13:22;;;;;;;12.00;5.40;;;;;;;;;;5018941;28;20051;-79
2022/08/13 03:15:52;;;;;;;9.55;4.93;;;;;;;;;;5003625;28;20532;-79
2022/08/13 03:18:31;;;;;;;6.85;4.85;;;;;;;;;;5005965;28;20054;-79
2022/08/13 03:21:19;;;;;;;8.77;4.30;;;;;;;;;;5002418;28;20053;-79
2022/08/13 03:24:09;;;;;;;9.15;4.82;;;;;;;;;;5006668;28;20047;-79
2022/08/13 03:26:38;;;;;;;10.10;4.95;;;;;;;;;;5003076;28;20086;-79
2022/08/13 03:29:09;;;;;;;8.20;5.15;;;;;;;;;;5002288;28;20054;-80
2022/08/13 03:31:39;;;;;;;8.82;4.80;;;;;;;;;;5008329;28;20081;-79
2022/08/13 03:34:24;;;;;;;8.38;5.28;;;;;;;;;;5005033;28;20129;-79
2022/08/13 03:36:57;;;;;;;7.57;5.00;;;;;;;;;;4999583;28;20091;-79
2022/08/13 03:39:25;;;;;;;6.88;5.05;;;;;;;;;;5006201;28;20061;-79
2022/08/13 03:41:53;;;;;;;6.65;5.28;;;;;;;;;;5010486;28;21217;-80
2022/08/13 03:44:26;;;;;;;10.98;5.25;;;;;;;;;;5003329;28;20150;-79
2022/08/13 03:47:03;;;;;;;7.47;4.70;;;;;;;;;;5010244;28;20055;-80
2022/08/13 03:49:51;;;;;;;8.35;4.60;;;;;;;;;;5004341;28;20055;-79
2022/08/13 03:52:22;;;;;;;7.70;4.65;;;;;;;;;;5008339;28;20069;-79
2022/08/13 03:54:59;;;;;;;6.35;4.80;;;;;;;;;;5000498;28;20070;-79
2022/08/13 03:57:27;;;;;;;6.32;4.53;;;;;;;;;;5003088;28;20053;-79
2022/08/13 04:00:18;;;;;;;6.30;4.35;;;;;;;;;;5005457;28;20054;-79
2022/08/13 04:02:50;;;;;;;7.47;4.22;;;;;;;;;;5009638;28;20073;-79
2022/08/13 04:05:17;;;;;;;6.40;4.38;;;;;;;;;;5009657;28;20047;-79
2022/08/13 04:08:04;;;;;;;8.60;4.55;;;;;;;;;;5008642;28;20054;-79
2022/08/13 04:10:40;;;;;;;8.93;4.65;;;;;;;;;;5011098;28;20059;-79
2022/08/13 04:13:20;;;;;;;9.93;4.22;;;;;;;;;;5003917;28;20871;-79
2022/08/13 04:16:12;;;;;;;8.32;4.43;;;;;;;;;;5010235;28;20074;-79
2022/08/13 04:18:40;;;;;;;14.98;4.72;;;;;;;;;;5003865;28;20051;-79
2022/08/13 04:21:10;;;;;;;9.23;4.60;;;;;;;;;;5010072;28;20054;-79
2022/08/13 04:23:48;;;;;;;7.90;4.85;;;;;;;;;;5011723;28;20057;-79
2022/08/13 04:26:17;;;;;;;6.97;4.60;;;;;;;;;;5005811;28;20599;-79
2022/08/13 04:28:59;;;;;;;7.93;4.88;;;;;;;;;;5002788;28;20066;-79
2022/08/13 04:31:26;;;;;;;9.77;4.80;;;;;;;;;;5006530;28;20085;-79
2022/08/13 04:34:14;;;;;;;6.45;4.20;;;;;;;;;;5007911;28;20054;-79
2022/08/13 04:37:02;;;;;;;6.63;4.30;;;;;;;;;;5007993;28;20054;-79
2022/08/13 04:39:30;;;;;;;8.05;4.50;;;;;;;;;;5005983;28;20066;-79
2022/08/13 04:42:17;;;;;;;5.68;4.32;;;;;;;;;;5011255;28;20867;-79
2022/08/13 04:44:58;;;;;;;7.03;4.25;;;;;;;;;;5013080;28;20050;-78
2022/08/13 04:47:30;;;;;;;9.93;4.80;;;;;;;;;;5001880;28;20054;-79
2022/08/13 04:49:58;;;;;;;6.85;4.55;;;;;;;;;;5010146;28;20060;-79
2022/08/13 04:52:28;;;;;;;5.82;4.38;;;;;;;;;;5008697;28;20106;-79
2022/08/13 04:55:15;;;;;;;7.68;4.50;;;;;;;;;;5001699;28;20061;-79
2022/08/13 04:57:42;;;;;;;8.55;4.70;;;;;;;;;;5007022;28;20061;-79
2022/08/13 05:00:24;;;;;;;7.68;4.90;;;;;;;;;;5006190;28;20054;-79
2022/08/13 05:02:54;;;;;;;10.02;4.75;;;;;;;;;;5004612;28;20065;-79
2022/08/13 05:05:24;;;;;;;12.63;4.97;;;;;;;;;;5012277;28;20840;-78
2022/08/13 05:07:52;;;;;;;11.73;5.25;;;;;;;;;;5000006;28;20055;-79
2022/08/13 05:10:21;;;;;;;7.43;4.72;;;;;;;;;;5004315;28;20165;-79
2022/08/13 05:13:03;;;;;;;7.95;4.95;;;;;;;;;;5005988;28;20487;-79
2022/08/13 05:15:31;;;;;;;8.27;5.28;;;;;;;;;;5008277;28;20054;-78
2022/08/13 05:18:14;;;;;;;14.38;5.03;;;;;;;;;;5001992;28;20057;-78
2022/08/13 05:20:55;;;;;;;10.43;5.00;;;;;;;;;;4996345;28;20130;-78
2022/08/13 05:23:24;;;;;;;6.47;4.65;;;;;;;;;;5007971;28;20043;-79
2022/08/13 05:26:11;;;;;;;10.85;5.20;;;;;;;;;;5001716;28;20073;-79
2022/08/13 05:29:04;;;;;;;7.43;4.43;;;;;;;;;;5003477;28;20982;-78
2022/08/13 05:31:31;;;;;;;;;;;;;;;;;;5008297;28;20054;-79
2022/08/13 05:34:03;;;;;;;8.23;4.68;;;;;;;;;;5007454;28;45635;-79
2022/08/13 05:36:32;;;;;;;13.05;5.07;;;;;;;;;;5002268;28;20061;-79
2022/08/13 05:39:22;;;;;;;14.68;5.25;;;;;;;;;;5005512;28;20047;-79
2022/08/13 05:41:52;;;;;;;;;;;;;;;;;;5002184;28;20058;-79
2022/08/13 05:44:34;;;;;;;11.48;4.70;;;;;;;;;;5007410;28;43558;-78
2022/08/13 05:47:05;;;;;;;14.43;4.80;;;;;;;;;;5011350;28;20054;-79
2022/08/13 05:49:33;;;;;;;9.45;5.00;;;;;;;;;;5012249;28;20138;-79
2022/08/13 05:52:25;;;;;;;11.77;5.53;;;;;;;;;;5004270;28;20031;-78
2022/08/13 05:55:07;;;;;;;11.75;4.63;;;;;;;;;;5006760;28;20081;-79
2022/08/13 05:57:54;;;;;;;7.57;5.15;;;;;;;;;;5014992;28;20047;-79
2022/08/13 06:03:33;;;;;;;9.10;5.13;;;;;;;;;;5002188;28;20061;-79
2022/08/13 06:06:24;;;;;;;11.25;5.10;;;;;;;;;;5001891;28;20093;-79
2022/08/13 06:09:01;;;;;;;8.15;4.75;;;;;;;;;;5004531;28;20050;-79
2022/08/13 06:11:30;;;;;;;11.55;5.13;;;;;;;;;;5002488;28;20074;-79
2022/08/13 06:14:31;;;;;;;11.82;5.10;;;;;;;;;;5002186;28;20043;-79
2022/08/13 06:17:02;;;;;;;12.27;5.00;;;;;;;;;;4999420;28;20130;-79
2022/08/13 06:19:42;;;;;;;13.80;5.35;;;;;;;;;;5007910;28;21008;-79
2022/08/13 06:22:19;;;;;;;15.45;5.50;;;;;;;;;;5004277;28;20066;-79
2022/08/13 06:24:50;;;;;;;;;;;;;;;;;;5001228;28;20074;-80
2022/08/13 06:27:21;;;;;;;8.63;4.75;;;;;;;;;;5007965;28;45445;-79
2022/08/13 06:30:09;;;;;;;11.38;5.10;;;;;;;;;;5001141;28;20050;-79
2022/08/13 06:32:37;;;;;;;14.05;5.40;;;;;;;;;;5003364;28;20094;-79
2022/08/13 06:35:28;;;;;;;7.78;5.07;;;;;;;;;;5009277;28;20081;-80
2022/08/13 06:38:13;;;;;;;9.60;4.97;;;;;;;;;;5003159;28;20050;-79
2022/08/13 06:40:48;;;;;;;12.30;4.95;;;;;;;;;;4998569;28;20145;-80
2022/08/13 06:43:17;;;;;;;11.05;4.35;;;;;;;;;;5004541;28;20520;-77
2022/08/13 06:45:50;;;;;;;8.70;4.43;;;;;;;;;;4992393;28;20079;-77
2022/08/13 06:48:23;;;;;;;6.95;4.43;;;;;;;;;;4997005;28;20055;-77
2022/08/13 06:51:01;;;;;;;13.55;4.50;;;;;;;;;;4994513;28;20066;-77
2022/08/13 06:53:30;;;;;;;18.15;3.97;;;;;;;;;;4996170;28;20079;-77
2022/08/13 06:56:23;;;;;;;9.07;3.30;;;;;;;;;;4991732;28;20737;-77
2022/08/13 06:59:03;;;;;;;9.90;3.75;;;;;;;;;;4997486;28;20082;-77
2022/08/13 07:01:43;;;;;;;10.38;3.30;;;;;;;;;;4997581;28;20189;-76
2022/08/13 07:04:34;;;;;;;7.68;3.47;;;;;;;;;;5000771;28;20059;-77
2022/08/13 07:07:04;;;;;;;14.60;3.35;;;;;;;;;;5001264;28;20059;-77
2022/08/13 07:09:32;;;;;;;9.25;3.13;;;;;;;;;;5002627;28;20057;-78
2022/08/13 07:12:15;;;;;;;8.32;3.25;;;;;;;;;;5000545;28;20420;-78
2022/08/13 07:14:43;;;;;;;11.68;3.28;;;;;;;;;;4998137;28;21730;-77
2022/08/13 07:17:25;;;;;;;8.73;3.08;;;;;;;;;;4998177;28;20086;-78
2022/08/13 07:19:57;;;;;;;4.93;3.10;;;;;;;;;;5001380;28;20058;-79
2022/08/13 07:22:34;;;;;;;7.80;3.08;;;;;;;;;;4997577;28;20054;-77
2022/08/13 07:25:26;;;;;;;8.20;2.80;;;;;;;;;;5003027;28;20117;-78
2022/08/13 07:28:16;;;;;;;11.03;2.93;;;;;;;;;;4997306;28;20501;-79
2022/08/13 07:31:06;;;;;;;8.18;2.80;;;;;;;;;;5000448;28;20054;-78
2022/08/13 07:33:39;;;;;;;10.00;2.53;;;;;;;;;;5007655;28;20555;-78
2022/08/13 07:36:27;;;;;;;10.18;2.45;;;;;;;;;;5000962;28;20054;-78
2022/08/13 07:38:55;;;;;;;4.95;2.70;;;;;;;;;;5002027;28;20046;-77
2022/08/13 07:41:27;;;;;;;5.65;2.38;;;;;;;;;;4998228;28;20840;-77
2022/08/13 07:43:59;;;;;;;2.47;1.80;;;;;;;;;;4999360;28;20065;-78
2022/08/13 07:46:30;;;;;;;;;;;;;;;;;;5007779;28;20058;-78
2022/08/13 07:48:58;;;;;;;6.68;1.80;;;;;;;;;;4997592;28;44651;-78
2022/08/13 07:51:31;;;;;;;4.57;1.70;;;;;;;;;;4995109;28;20054;-78
2022/08/13 07:54:06;;;;;;;4.13;1.70;;;;;;;;;;5001872;28;20109;-78
2022/08/13 07:56:36;;;;;;;9.57;1.90;;;;;;;;;;4995096;28;20317;-78
2022/08/13 07:59:12;;;;;;;9.90;1.80;;;;;;;;;;5000852;28;20050;-78
2022/08/13 08:01:51;;;;;;;10.55;2.22;;;;;;;;;;5001294;28;20054;-77
2022/08/13 08:04:41;;;;;;;12.07;2.00;;;;;;;;;;4995362;28;20101;-77
2022/08/13 08:07:15;;;;;;;4.47;1.88;;;;;;;;;;4992530;28;20055;-78
2022/08/13 08:09:46;;;;;;;7.07;1.42;;;;;;;;;;4996142;28;20060;-77
2022/08/13 08:15:00;;;;;;;5.88;1.70;;;;;;;;;;4996094;28;20090;-79
2022/08/13 08:17:31;;;;;;;4.70;1.88;;;;;;;;;;4999045;28;20077;-78
2022/08/13 08:20:22;;;;;;;8.40;1.90;;;;;;;;;;4996830;28;20050;-79
2022/08/13 08:23:11;;;;;;;7.47;1.52;;;;;;;;;;5000592;28;20055;-77
2022/08/13 08:26:00;;;;;;;7.35;1.50;;;;;;;;;;5011222;28;20051;-77
2022/08/13 08:28:32;;;;;;;6.53;1.60;;;;;;;;;;4997408;28;20085;-78
2022/08/13 08:31:09;;;;;;;2.53;1.60;;;;;;;;;;4995392;28;20065;-78
2022/08/13 08:33:56;;;;;;;5.47;1.48;;;;;;;;;;5004010;28;20055;-77
2022/08/13 08:36:26;;;;;;;2.92;1.50;;;;;;;;;;4996041;28;20113;-77
2022/08/13 08:44:42;;;;;;;6.80;1.60;;;;;;;;;;4995480;28;20078;-79
2022/08/13 08:47:10;;;;;;;5.97;1.70;;;;;;;;;;4994338;28;20089;-79
2022/08/13 08:49:39;;;;;;;2.70;1.63;;;;;;;;;;4994952;28;20055;-79
2022/08/13 08:52:11;;;;;;;8.98;1.73;;;;;;;;;;4994729;28;20053;-78
2022/08/13 08:54:45;;;;;;;6.30;1.47;;;;;;;;;;4998647;28;20062;-78
2022/08/13 08:57:14;;;;;;;4.97;1.42;;;;;;;;;;4992453;28;20548;-78
2022/08/13 09:00:05;;;;;;;4.40;1.63;;;;;;;;;;5002621;28;20054;-78
2022/08/13 09:02:33;;;;;;;2.90;1.38;;;;;;;;;;4993781;28;20042;-78
2022/08/13 09:05:02;;;;;;;1.40;1.25;;;;;;;;;;4994460;28;20548;-78
2022/08/13 09:07:46;;;;;;;4.43;1.50;;;;;;;;;;4997545;28;21581;-79
2022/08/13 09:10:17;;;;;;;3.47;1.50;;;;;;;;;;5006507;28;20811;-76
2022/08/13 09:13:03;;;;;;;4.93;1.50;;;;;;;;;;5001260;28;20051;-76
2022/08/13 09:15:33;;;;;;;3.50;1.30;;;;;;;;;;5003409;28;20054;-76
2022/08/13 09:18:08;;;;;;;9.90;1.40;;;;;;;;;;4999953;28;20492;-78
2022/08/13 09:20:44;;;;;;;4.70;1.40;;;;;;;;;;5000787;28;20141;-77
2022/08/13 09:23:14;;;;;;;4.47;1.58;;;;;;;;;;4995851;28;20058;-78
2022/08/13 09:26:04;;;;;;;4.95;1.60;;;;;;;;;;5006334;28;20051;-77
2022/08/13 09:28:32;;;;;;;2.85;1.30;;;;;;;;;;4998447;28;20066;-77
2022/08/13 09:31:03;;;;;;;4.93;1.60;;;;;;;;;;4998701;28;20046;-78
2022/08/13 09:33:38;;;;;;;2.15;1.30;;;;;;;;;;5000818;28;20050;-77
2022/08/13 09:36:28;;;;;;;6.25;1.33;;;;;;;;;;4993994;28;20702;-79
2022/08/13 09:38:56;;;;;;;4.80;1.30;;;;;;;;;;4994354;28;20059;-78
2022/08/13 09:41:32;;;;;;;6.57;1.73;;;;;;;;;;4995289;28;20055;-79
2022/08/13 09:44:04;;;;;;;3.25;1.20;;;;;;;;;;4998554;28;20059;-79
2022/08/13 09:46:45;;;;;;;4.85;1.50;;;;;;;;;;4997925;28;20134;-77
2022/08/13 09:49:20;;;;;;;4.25;1.42;;;;;;;;;;5003212;28;20061;-79
2022/08/13 09:52:10;;;;;;;7.18;1.35;;;;;;;;;;4998350;28;20047;-79
2022/08/13 09:54:46;;;;;;;3.28;1.50;;;;;;;;;;4997761;28;20059;-80
2022/08/13 09:57:23;;;;;;;5.53;1.77;;;;;;;;;;5007163;28;20050;-79
2022/08/13 09:59:50;;;;;;;3.10;1.45;;;;;;;;;;5000985;28;20084;-79
2022/08/13 10:02:24;;;;;;;5.35;1.58;;;;;;;;;;5003474;28;20058;-79
2022/08/13 10:04:55;;;;;;;3.28;1.33;;;;;;;;;;5003752;28;20050;-80
2022/08/13 10:07:22;;;;;;;5.18;1.52;;;;;;;;;;5005424;28;20061;-78
2022/08/13 10:09:52;;;;;;;3.00;1.20;;;;;;;;;;5006231;28;20050;-79
2022/08/13 10:12:40;;;;;;;2.05;1.27;;;;;;;;;;5005107;28;20051;-77
2022/08/13 10:15:13;;;;;;;3.05;1.60;;;;;;;;;;4994201;28;20054;-78
2022/08/13 10:17:52;;;;;;;3.05;1.33;;;;;;;;;;5015492;28;20054;-78
2022/08/13 10:20:22;;;;;;;2.70;1.30;;;;;;;;;;5001528;28;20050;-79
2022/08/13 10:22:49;;;;;;;5.60;1.38;;;;;;;;;;4998088;28;20047;-78
2022/08/13 10:25:21;;;;;;;2.63;1.33;;;;;;;;;;5006103;28;20054;-78
2022/08/13 10:27:49;;;;;;;5.00;1.60;;;;;;;;;;5001504;28;20058;-78
2022/08/13 10:30:26;;;;;;;4.57;1.50;;;;;;;;;;5002237;28;20144;-78
2022/08/13 10:33:15;;;;;;;2.95;1.30;;;;;;;;;;4995640;28;20506;-78
2022/08/13 10:35:52;;;;;;;2.65;1.40;;;;;;;;;;4999315;28;20132;-79
2022/08/13 10:38:25;;;;;;;6.50;1.48;;;;;;;;;;5004108;28;20059;-78
2022/08/13 10:41:00;;;;;;;6.97;1.48;;;;;;;;;;5005459;28;20493;-78
2022/08/13 10:43:31;;;;;;;5.45;1.40;;;;;;;;;;5001483;28;20054;-78
2022/08/13 10:46:20;;;;;;;2.20;1.30;;;;;;;;;;5003788;28;20043;-77
2022/08/13 10:48:55;;;;;;;2.72;1.38;;;;;;;;;;5001192;28;20050;-77
2022/08/13 10:51:25;;;;;;;2.65;1.58;;;;;;;;;;5001333;28;20054;-79
2022/08/13 10:53:58;;;;;;;3.30;1.30;;;;;;;;;;4982328;28;20951;-78
2022/08/13 10:56:28;;;;;;;4.78;1.30;;;;;;;;;;5009131;28;20055;-78
2022/08/13 10:59:00;;;;;;;2.65;1.33;;;;;;;;;;5001340;28;20053;-79
2022/08/13 11:01:28;;;;;;;2.67;1.20;;;;;;;;;;5006686;28;20050;-79
2022/08/13 11:04:01;;;;;;;5.57;1.37;;;;;;;;;;5000592;28;20058;-79
2022/08/13 11:06:34;;;;;;;9.30;1.30;;;;;;;;;;5008042;28;20261;-80
2022/08/13 11:09:04;;;;;;;3.80;1.70;;;;;;;;;;4996369;28;20054;-79
2022/08/13 11:11:53;;;;;;;3.70;1.52;;;;;;;;;;5001184;28;20054;-81
2022/08/13 11:14:22;;;;;;;3.85;1.40;;;;;;;;;;4995250;28;20061;-80
2022/08/13 11:16:58;;;;;;;2.25;1.30;;;;;;;;;;4997973;28;20145;-78
2022/08/13 11:19:29;;;;;;;4.75;1.40;;;;;;;;;;4999902;28;20065;-79
2022/08/13 11:22:16;;;;;;;5.88;1.30;;;;;;;;;;4999573;28;20055;-78
2022/08/13 11:24:53;;;;;;;2.72;1.20;;;;;;;;;;5003401;28;20058;-75
2022/08/13 11:27:23;;;;;;;3.42;1.20;;;;;;;;;;4998117;28;20089;-80
2022/08/13 11:30:14;;;;;;;3.13;1.40;;;;;;;;;;4999200;28;20058;-77
2022/08/13 11:32:58;;;;;;;5.15;1.42;;;;;;;;;;5000401;28;20065;-77
2022/08/13 11:35:32;;;;;;;2.63;1.50;;;;;;;;;;5001278;28;20084;-78
2022/08/13 11:38:14;;;;;;;1.90;1.20;;;;;;;;;;5000330;28;20149;-81
2022/08/13 11:40:48;;;;;;;3.78;1.35;;;;;;;;;;4997175;28;20060;-79
2022/08/13 11:43:19;;;;;;;2.63;1.20;;;;;;;;;;4998872;28;20137;-79
2022/08/13 11:45:48;;;;;;;4.43;1.35;;;;;;;;;;4996816;28;20054;-78
2022/08/13 11:48:15;;;;;;;6.55;1.20;;;;;;;;;;5002059;28;20059;-79
2022/08/13 11:50:56;;;;;;;3.35;1.38;;;;;;;;;;5001521;28;20059;-79
2022/08/13 11:53:28;;;;;;;6.78;1.52;;;;;;;;;;4997908;28;20063;-76
2022/08/13 11:56:05;;;;;;;1.75;1.20;;;;;;;;;;4998182;28;20052;-78
2022/08/13 11:58:34;;;;;;;2.15;1.40;;;;;;;;;;4996127;28;20051;-78
2022/08/13 12:01:22;;;;;;;6.72;1.23;;;;;;;;;;5003087;28;20062;-76
2022/08/13 12:03:52;;;;;;;1.85;1.20;;;;;;;;;;5008017;28;20050;-76
2022/08/13 12:06:40;;;;;;;1.92;1.10;;;;;;;;;;4997939;28;20054;-77
2022/08/13 12:09:07;;;;;;;1.83;1.25;;;;;;;;;;4998687;28;20089;-76
2022/08/13 12:11:50;;;;;;;3.53;1.27;;;;;;;;;;4993862;28;20075;-76
2022/08/13 12:14:39;;;;;;;1.35;1.05;;;;;;;;;;4993895;28;20061;-76
2022/08/13 12:17:09;;;;;;;3.72;1.25;;;;;;;;;;4995895;28;20911;-77
2022/08/13 12:19:37;;;;;;;4.82;1.40;;;;;;;;;;4994261;28;20105;-76
2022/08/13 12:22:05;;;;;;;2.20;1.23;;;;;;;;;;4994101;28;20053;-78
2022/08/13 12:24:35;;;;;;;5.03;1.05;;;;;;;;;;5009913;28;20568;-77
2022/08/13 12:27:03;;;;;;;2.13;1.27;;;;;;;;;;4997978;28;20102;-76
2022/08/13 12:29:34;;;;;;;4.38;1.15;;;;;;;;;;4998313;28;20416;-76
2022/08/13 12:32:13;;;;;;;2.42;1.00;;;;;;;;;;5001261;28;20054;-76
2022/08/13 12:34:40;;;;;;;6.10;1.30;;;;;;;;;;4995551;28;20083;-78
2022/08/13 12:37:09;;;;;;;3.35;1.20;;;;;;;;;;4996331;28;20047;-77
2022/08/13 12:39:50;;;;;;;3.30;1.42;;;;;;;;;;4998440;28;20043;-77
2022/08/13 12:42:19;;;;;;;7.88;1.38;;;;;;;;;;5001015;28;20050;-80
2022/08/13 12:44:54;;;;;;;2.38;1.33;;;;;;;;;;5007447;28;20055;-78
2022/08/13 12:47:45;;;;;;;4.60;1.27;;;;;;;;;;5008847;28;20082;-78
2022/08/13 12:50:16;;;;;;;1.77;1.20;;;;;;;;;;5008442;28;20577;-77
2022/08/13 12:52:47;;;;;;;6.22;1.50;;;;;;;;;;5008173;28;20055;-81
2022/08/13 12:55:16;;;;;;;5.50;1.10;;;;;;;;;;5009121;28;20054;-76
2022/08/13 12:57:51;;;;;;;5.05;1.33;;;;;;;;;;5001002;28;20085;-80
2022/08/13 13:00:33;;;;;;;1.85;1.33;;;;;;;;;;5002223;28;20054;-81
2022/08/13 13:03:01;;;;;;;4.40;1.23;;;;;;;;;;4999341;28;20094;-79
2022/08/13 13:05:36;;;;;;;2.90;1.43;;;;;;;;;;5002769;28;20058;-79
2022/08/13 13:08:25;;;;;;;3.55;1.48;;;;;;;;;;5000767;28;20050;-80
2022/08/13 13:11:08;;;;;;;6.20;1.48;;;;;;;;;;4998019;28;20165;-79
2022/08/13 13:13:40;;;;;;;5.85;1.25;;;;;;;;;;5000651;28;20125;-79
2022/08/13 13:16:27;;;;;;;6.15;1.33;;;;;;;;;;5009083;28;20055;-79
2022/08/13 13:19:04;;;;;;;2.53;1.30;;;;;;;;;;5002367;28;20090;-81
2022/08/13 13:21:42;;;;;;;3.55;1.40;;;;;;;;;;5009377;28;20054;-79
2022/08/13 13:24:10;;;;;;;1.58;1.38;;;;;;;;;;5001497;28;20054;-78
2022/08/13 13:26:47;;;;;;;4.45;1.40;;;;;;;;;;5019232;28;20069;-80
2022/08/13 13:29:28;;;;;;;3.78;1.38;;;;;;;;;;5000907;28;20065;-77
2022/08/13 13:32:01;;;;;;;4.68;1.40;;;;;;;;;;4997874;28;20058;-77
2022/08/13 13:34:50;;;;;;;2.08;1.20;;;;;;;;;;5002278;28;20058;-79
2022/08/13 13:37:23;;;;;;;3.67;1.42;;;;;;;;;;5002488;28;20054;-79
2022/08/13 13:39:58;;;;;;;2.80;1.45;;;;;;;;;;5007057;28;20054;-79
2022/08/13 13:42:29;;;;;;;2.75;1.33;;;;;;;;;;5004635;28;20074;-80
2022/08/13 13:45:09;;;;;;;1.55;1.23;;;;;;;;;;5001976;28;20150;-78
2022/08/13 13:47:39;;;;;;;6.47;1.48;;;;;;;;;;5002641;28;20054;-77
2022/08/13 13:50:08;;;;;;;4.45;1.20;;;;;;;;;;5005670;28;20054;-77
2022/08/13 13:52:46;;;;;;;1.98;1.40;;;;;;;;;;4999752;28;20051;-78
2022/08/13 13:55:33;;;;;;;1.65;1.20;;;;;;;;;;4997058;28;20050;-77
2022/08/13 13:58:06;;;;;;;2.50;1.30;;;;;;;;;;4998477;28;20623;-77
2022/08/13 14:00:54;;;;;;;3.72;1.30;;;;;;;;;;5000473;28;20058;-76
2022/08/13 14:03:29;;;;;;;3.55;1.42;;;;;;;;;;5006736;28;20070;-78
2022/08/13 14:05:57;;;;;;;3.47;1.60;;;;;;;;;;5016336;28;20054;-78
2022/08/13 14:08:31;;;;;;;2.13;1.30;;;;;;;;;;5003074;28;20053;-79
2022/08/13 14:11:00;;;;;;;4.90;1.10;;;;;;;;;;5002974;28;20085;-78
2022/08/13 14:13:32;;;;;;;1.30;1.20;;;;;;;;;;5004789;28;20872;-76
2022/08/13 14:16:10;;;;;;;2.65;1.50;;;;;;;;;;4997747;28;20039;-78
2022/08/13 14:18:42;;;;;;;2.35;1.30;;;;;;;;;;5008083;28;20792;-77
2022/08/13 14:21:11;;;;;;;5.57;1.20;;;;;;;;;;5004593;28;20106;-77
2022/08/13 14:23:41;;;;;;;5.85;1.30;;;;;;;;;;5006115;28;20145;-79
2022/08/13 14:26:13;;;;;;;1.73;1.30;;;;;;;;;;4998020;28;20066;-78
2022/08/13 14:28:45;;;;;;;1.75;1.20;;;;;;;;;;5000532;28;20054;-77
2022/08/13 14:31:14;;;;;;;3.17;1.40;;;;;;;;;;4998956;28;20043;-78
2022/08/13 14:33:43;;;;;;;2.42;1.58;;;;;;;;;;5002762;28;20047;-79
2022/08/13 14:36:29;;;;;;;4.95;1.20;;;;;;;;;;5001101;28;20059;-78
2022/08/13 14:39:03;;;;;;;1.55;1.20;;;;;;;;;;5001555;28;20086;-78
2022/08/13 14:41:45;;;;;;;2.67;1.25;;;;;;;;;;4998357;28;20086;-76
2022/08/13 14:44:16;;;;;;;3.75;1.10;;;;;;;;;;5007802;28;20058;-76
2022/08/13 14:47:03;;;;;;;3.38;1.30;;;;;;;;;;5001779;28;20058;-78
2022/08/13 14:49:42;;;;;;;3.08;1.40;;;;;;;;;;5004022;28;20054;-75
2022/08/13 14:52:29;;;;;;;3.28;1.23;;;;;;;;;;5009195;28;20058;-75
2022/08/13 14:55:07;;;;;;;1.90;1.20;;;;;;;;;;5000661;28;20215;-75
2022/08/13 14:57:34;;;;;;;1.42;1.20;;;;;;;;;;4996517;28;20046;-77
2022/08/13 15:00:09;;;;;;;1.77;1.10;;;;;;;;;;4997937;28;20050;-76
2022/08/13 15:02:52;;;;;;;1.42;1.30;;;;;;;;;;4999239;28;22301;-76
2022/08/13 15:05:42;;;;;;;2.88;1.33;;;;;;;;;;4998935;28;20062;-76
2022/08/13 15:08:25;;;;;;;1.90;1.10;;;;;;;;;;5001940;28;20058;-78
2022/08/13 15:11:00;;;;;;;5.35;1.30;;;;;;;;;;5003084;28;20126;-77
2022/08/13 15:13:34;;;;;;;6.30;1.35;;;;;;;;;;5000131;28;20129;-76
2022/08/13 15:16:25;;;;;;;4.63;1.30;;;;;;;;;;5000085;28;20054;-79
2022/08/13 15:19:09;;;;;;;4.07;1.30;;;;;;;;;;4996288;28;20157;-77
2022/08/13 15:21:44;;;;;;;6.63;1.23;;;;;;;;;;5000514;28;20050;-78
2022/08/13 15:24:29;;;;;;;2.53;1.20;;;;;;;;;;4998379;28;20059;-78
2022/08/13 15:27:29;;;;;;;3.72;1.30;;;;;;;;;;4997496;28;20111;-77
2022/08/13 15:30:01;;;;;;;3.45;1.42;;;;;;;;;;4998566;28;20145;-79
2022/08/13 15:32:29;;;;;;;2.78;1.35;;;;;;;;;;4996077;28;20046;-77
2022/08/13 15:35:01;;;;;;;6.43;1.65;;;;;;;;;;5001159;28;20078;-79
2022/08/13 15:37:28;;;;;;;3.28;1.20;;;;;;;;;;5006734;28;20848;-79
2022/08/13 15:40:19;;;;;;;1.67;1.30;;;;;;;;;;4997812;28;20047;-79
2022/08/13 15:42:59;;;;;;;3.55;1.40;;;;;;;;;;4998089;28;20058;-78
2022/08/13 15:45:34;;;;;;;5.93;1.33;;;;;;;;;;5000879;28;20058;-80
2022/08/13 15:48:08;;;;;;;3.75;1.30;;;;;;;;;;5000701;28;20990;-77
2022/08/13 15:50:49;;;;;;;1.98;1.40;;;;;;;;;;5003121;28;20058;-78
2022/08/13 15:53:17;;;;;;;5.28;1.20;;;;;;;;;;5000568;28;20144;-78
2022/08/13 15:55:47;;;;;;;3.53;1.30;;;;;;;;;;5001519;28;20062;-77